^^
Station Historical Data
 
Daily Summary for April 21, 2018 Units:  English    Metric   Both
« Previous Day
Next Day »
Daily Weekly Monthly Yearly Custom
  Current: High: Low: Average:
Temperature: 49.2 °F TemperatureF °F 33.7 °F 37 °F
Dew Point: 28.7 °F DewpointF °F 26.2 °F 26.9 °F
Humidity: 45% Humidity% 45% 65%
Wind Speed: 1.0mph WindSpeedMPHmph 0.0mph 0.2mph
Wind Gust: 7.0mph WindSpeedGustMPHmph - -
WindNW - - SSW
Pressure: 30.42 in PressureIn in 30.38 in -
Precipitation: 0.00 in      
Historical Graphs
 
 
Tabular Data for April 21, 2018
Time Temperature Dew Point Pressure Wind Wind Speed Wind Gust Humidity Rainfall Rate (Hourly) Conditions
TemperatureF °F DewpointF °F PressureIn in Calm     Humidity% HourlyPrecipIn in Conditions
00:04 36.9 °F 26.6 °F 30.39 in Calm   2.0 mph 66% 0.00 in CLR
00:19 36.8 °F 26.5 °F 30.40 in Calm   1.0 mph 66% 0.00 in CLR
00:34 36.7 °F 26.4 °F 30.40 in Calm   1.0 mph 66% 0.00 in CLR
00:49 36.5 °F 26.2 °F 30.40 in Calm   1.0 mph 66% 0.00 in CLR
01:04 35.9 °F 26.4 °F 30.40 in Calm   1.0 mph 68% 0.00 in CLR
01:19 36.6 °F 27.0 °F 30.39 in Calm   5.0 mph 68% 0.00 in CLR
01:34 36.8 °F 26.5 °F 30.39 in Calm   2.0 mph 66% 0.00 in CLR
01:49 35.6 °F 26.4 °F 30.38 in Calm     69% 0.00 in CLR
02:04 34.3 °F 26.2 °F 30.38 in Calm     72% 0.00 in CLR
02:19 34.5 °F 27.1 °F 30.38 in Calm   1.0 mph 74% 0.00 in CLR
02:34 33.7 °F 27.3 °F 30.38 in Calm     77% 0.00 in CLR
02:49 34.5 °F 27.7 °F 30.39 in Calm   1.0 mph 76% 0.00 in CLR
03:04 34.8 °F 27.7 °F 30.39 in Calm   1.0 mph 75% 0.00 in CLR
03:19 35.0 °F 27.5 °F 30.40 in Calm   1.0 mph 74% 0.00 in CLR
03:34 35.2 °F 27.4 °F 30.40 in Calm     73% 0.00 in CLR
03:49 35.1 °F 27.0 °F 30.40 in Calm     72% 0.00 in CLR
04:04 35.1 °F 27.0 °F 30.40 in Calm     72% 0.00 in CLR
04:19 35.5 °F 27.4 °F 30.40 in Calm   2.0 mph 72% 0.00 in CLR
04:34 35.5 °F 27.1 °F 30.40 in Calm   1.0 mph 71% 0.00 in CLR
04:49 35.3 °F 26.8 °F 30.40 in Calm   1.0 mph 71% 0.00 in CLR
05:04 35.8 °F 27.3 °F 30.40 in Calm   5.0 mph 71% 0.00 in CLR
05:19 35.1 °F 27.0 °F 30.40 in Calm   1.0 mph 72% 0.00 in CLR
05:34 34.6 °F 27.2 °F 30.40 in Calm   1.0 mph 74% 0.00 in CLR
05:49 35.0 °F 27.2 °F 30.41 in Calm   1.0 mph 73% 0.00 in CLR
06:04 35.4 °F 27.3 °F 30.41 in Calm   1.0 mph 72% 0.00 in CLR
06:19 35.1 °F 27.0 °F 30.42 in Calm   1.0 mph 72% 0.00 in CLR
06:34 34.9 °F 26.8 °F 30.42 in Calm     72% 0.00 in CLR
06:49 34.7 °F 26.9 °F 30.42 in Calm     73% 0.00 in CLR
07:04 35.2 °F 27.1 °F 30.43 in Calm     72% 0.00 in CLR
07:19 36.1 °F 27.6 °F 30.43 in Calm   1.0 mph 71% 0.00 in CLR
07:34 36.7 °F 27.8 °F 30.43 in Calm   1.0 mph 70% 0.00 in CLR
07:49 37.8 °F 27.8 °F 30.43 in Calm   2.0 mph 67% 0.00 in CLR
08:04 38.6 °F 27.8 °F 30.43 in SSE 1.0 mph 4.0 mph 65% 0.00 in CLR
08:19 39.8 °F 28.2 °F 30.43 in Calm   3.0 mph 63% 0.00 in CLR
08:34 41.0 °F 28.1 °F 30.43 in North 1.0 mph 5.0 mph 60% 0.00 in CLR
08:49 42.2 °F 28.5 °F 30.43 in WNW 1.0 mph 5.0 mph 58% 0.00 in CLR
09:04 44.1 °F 28.9 °F 30.43 in West 1.0 mph 4.0 mph 55% 0.00 in CLR
09:19 43.7 °F 29.0 °F 30.43 in Calm   5.0 mph 56% 0.00 in CLR
09:34 45.0 °F 28.9 °F 30.43 in North 2.0 mph 5.0 mph 53% 0.00 in CLR
09:49 45.3 °F 28.7 °F 30.43 in SW 1.0 mph 6.0 mph 52% 0.00 in CLR
10:04 45.9 °F 29.3 °F 30.43 in Calm   5.0 mph 52% 0.00 in CLR
10:19 47.1 °F 29.9 °F 30.43 in Calm   6.0 mph 51% 0.00 in CLR
10:34 48.5 °F 30.2 °F 30.42 in NNE 1.0 mph 5.0 mph 49% 0.00 in CLR
10:49 49.2 °F 28.7 °F 30.42 in NW 1.0 mph 7.0 mph 45% 0.00 in CLR
TarryTown NY Weather
Compliments of Weather Underground - 1.25 mb